createdAt,value
2023-02-26T00:01:51.560Z,55.60
2023-02-26T00:04:20.742Z,51.40
2023-02-26T00:06:56.905Z,54.20
2023-02-26T00:09:27.927Z,55.20
2023-02-26T00:11:57.227Z,52.20
2023-02-26T00:14:31.852Z,59.80
2023-02-26T00:17:35.367Z,49.20
2023-02-26T00:20:12.148Z,59.00
2023-02-26T00:22:42.564Z,48.50
2023-02-26T00:25:11.337Z,53.60
2023-02-26T00:27:40.847Z,58.20
2023-02-26T00:30:10.481Z,55.40
2023-02-26T00:32:40.256Z,54.50
2023-02-26T00:35:11.797Z,53.60
2023-02-26T00:37:56.280Z,53.50
2023-02-26T00:40:46.086Z,51.10
2023-02-26T00:43:24.344Z,55.60
2023-02-26T00:46:25.994Z,57.50
2023-02-26T00:49:11.045Z,51.10
2023-02-26T00:51:50.839Z,59.10
2023-02-26T00:54:26.496Z,52.20
2023-02-26T00:56:56.343Z,59.70
2023-02-26T00:59:25.516Z,47.20
2023-02-26T01:01:54.395Z,51.60
2023-02-26T01:04:24.424Z,54.60
2023-02-26T01:06:55.720Z,56.40
2023-02-26T01:09:28.757Z,52.10
2023-02-26T01:12:01.771Z,63.60
2023-02-26T01:14:32.596Z,61.20
2023-02-26T01:17:40.081Z,58.10
2023-02-26T01:20:10.493Z,53.60
2023-02-26T01:23:02.141Z,64.80
2023-02-26T01:25:39.806Z,47.30
2023-02-26T01:28:09.203Z,54.90
2023-02-26T01:30:39.647Z,52.30
2023-02-26T01:33:30.744Z,62.00
2023-02-26T01:36:23.024Z,58.80
2023-02-26T01:39:10.699Z,58.80
2023-02-26T01:41:58.958Z,51.70
2023-02-26T01:44:32.552Z,56.40
2023-02-26T01:47:01.865Z,58.00
2023-02-26T01:49:32.085Z,62.40
2023-02-26T01:52:02.710Z,48.70
2023-02-26T01:54:34.091Z,54.00
2023-02-26T01:57:08.770Z,64.20
2023-02-26T01:59:44.006Z,57.70
2023-02-26T02:02:13.785Z,48.40
2023-02-26T02:04:42.727Z,43.80
2023-02-26T02:07:11.716Z,60.50
2023-02-26T02:09:40.415Z,58.70
2023-02-26T02:12:31.162Z,49.90
2023-02-26T02:15:03.285Z,47.20
2023-02-26T02:17:58.078Z,57.50
2023-02-26T02:20:45.692Z,60.70
2023-02-26T02:23:23.107Z,57.40
2023-02-26T02:26:49.927Z,46.80
2023-02-26T02:29:42.078Z,55.00
2023-02-26T02:32:12.558Z,48.40
2023-02-26T02:34:58.823Z,50.50
2023-02-26T02:37:48.796Z,55.00
2023-02-26T02:40:30.217Z,44.20
2023-02-26T02:43:00.173Z,50.60
2023-02-26T02:45:48.289Z,56.70
2023-02-26T02:48:29.767Z,54.10
2023-02-26T02:51:19.188Z,49.90
2023-02-26T02:53:55.022Z,56.60
2023-02-26T02:56:26.309Z,64.60
2023-02-26T02:59:23.436Z,59.60
2023-02-26T03:02:21.553Z,52.40
2023-02-26T03:04:50.282Z,56.40
2023-02-26T03:07:19.084Z,67.70
2023-02-26T03:09:53.608Z,53.50
2023-02-26T03:12:22.587Z,57.90
2023-02-26T03:14:55.791Z,54.10
2023-02-26T03:17:52.216Z,55.30
2023-02-26T03:20:23.666Z,59.80
2023-02-26T03:22:56.168Z,51.00
2023-02-26T03:25:42.853Z,53.40
2023-02-26T03:28:27.750Z,55.70
2023-02-26T03:31:07.294Z,45.40
2023-02-26T03:33:50.992Z,50.10
2023-02-26T03:36:30.024Z,59.80
2023-02-26T03:39:12.626Z,62.10
2023-02-26T03:42:10.611Z,71.20
2023-02-26T03:44:54.968Z,58.80
2023-02-26T03:47:25.694Z,68.90
2023-02-26T03:49:59.576Z,62.60
2023-02-26T03:52:30.142Z,69.70
2023-02-26T03:55:28.003Z,58.00
2023-02-26T03:58:09.700Z,63.70
2023-02-26T04:01:18.967Z,62.00
2023-02-26T04:03:54.733Z,56.30
2023-02-26T04:06:25.113Z,64.60
2023-02-26T04:08:55.324Z,51.50
2023-02-26T04:11:26.063Z,52.70
2023-02-26T04:13:55.058Z,59.10
2023-02-26T04:16:25.093Z,59.80
2023-02-26T04:18:56.108Z,68.00
2023-02-26T04:21:25.067Z,61.60
2023-02-26T04:23:54.336Z,58.60
2023-02-26T04:26:23.702Z,65.20
2023-02-26T04:28:53.200Z,60.60
2023-02-26T04:31:22.419Z,63.00
2023-02-26T04:33:51.800Z,58.20
2023-02-26T04:36:20.394Z,56.50
2023-02-26T04:38:49.997Z,50.90
2023-02-26T04:41:18.774Z,51.80
2023-02-26T04:43:49.098Z,47.40
2023-02-26T04:46:24.698Z,53.90
2023-02-26T04:48:54.010Z,50.70
2023-02-26T04:51:26.463Z,49.10
2023-02-26T04:53:55.721Z,47.60
2023-02-26T04:56:25.967Z,50.50
2023-02-26T04:58:56.160Z,53.00
2023-02-26T05:01:28.768Z,52.30
2023-02-26T05:03:58.036Z,55.60
2023-02-26T05:06:27.304Z,51.60
2023-02-26T05:08:57.154Z,52.40
2023-02-26T05:11:26.129Z,56.70
2023-02-26T05:13:55.757Z,58.50
2023-02-26T05:16:24.833Z,54.30
2023-02-26T05:18:54.965Z,42.30
2023-02-26T05:21:26.135Z,49.50
2023-02-26T05:23:55.515Z,51.90
2023-02-26T05:26:24.775Z,47.70
2023-02-26T05:28:56.989Z,51.70
2023-02-26T05:31:27.289Z,45.40
2023-02-26T05:33:56.714Z,47.30
2023-02-26T05:36:25.826Z,43.80
2023-02-26T05:38:54.803Z,56.00
2023-02-26T05:41:23.794Z,49.80
2023-02-26T05:43:52.541Z,66.50
2023-02-26T05:46:21.715Z,65.60
2023-02-26T05:48:52.115Z,55.70
2023-02-26T05:51:21.704Z,62.50
2023-02-26T05:53:50.401Z,49.80
2023-02-26T05:56:19.282Z,55.40
2023-02-26T05:58:48.448Z,50.50
2023-02-26T06:01:17.872Z,54.50
2023-02-26T06:03:46.766Z,49.60
2023-02-26T06:06:18.854Z,43.90
2023-02-26T06:08:48.333Z,61.50
2023-02-26T06:11:20.712Z,53.20
2023-02-26T06:13:49.887Z,53.00
2023-02-26T06:16:20.805Z,36.10
2023-02-26T06:18:51.570Z,53.00
2023-02-26T06:21:20.776Z,50.90
2023-02-26T06:23:49.614Z,55.90
2023-02-26T06:26:18.547Z,50.40
2023-02-26T06:28:48.878Z,44.40
2023-02-26T06:31:18.384Z,48.50
2023-02-26T06:33:48.098Z,41.10
2023-02-26T06:36:17.830Z,27.60
2023-02-26T06:38:47.219Z,25.30
2023-02-26T06:41:16.094Z,26.60
2023-02-26T06:43:44.991Z,29.20
2023-02-26T06:46:14.152Z,23.00
2023-02-26T06:48:45.225Z,30.10
2023-02-26T06:51:14.012Z,24.90
2023-02-26T06:53:42.902Z,22.60
2023-02-26T06:56:11.781Z,21.00
2023-02-26T06:58:40.691Z,16.80
2023-02-26T07:01:10.844Z,11.90
2023-02-26T07:03:39.630Z,12.60
2023-02-26T07:06:38.459Z,13.30
2023-02-26T07:08:59.848Z,12.10
2023-02-26T07:11:29.712Z,12.10
2023-02-26T07:13:58.494Z,19.20
2023-02-26T07:16:27.958Z,20.90
2023-02-26T07:18:57.353Z,16.90
2023-02-26T07:21:26.298Z,21.80
2023-02-26T07:24:01.743Z,12.60
2023-02-26T07:26:30.853Z,14.50
2023-02-26T07:29:00.034Z,14.80
2023-02-26T07:31:29.362Z,15.10
2023-02-26T07:33:58.221Z,10.70
2023-02-26T07:36:27.424Z,17.70
2023-02-26T07:38:56.722Z,16.30
2023-02-26T07:41:26.731Z,18.10
2023-02-26T07:43:56.029Z,12.90
2023-02-26T07:46:25.057Z,20.80
2023-02-26T07:48:54.216Z,17.70
2023-02-26T07:51:24.446Z,15.60
2023-02-26T07:53:57.629Z,16.30
2023-02-26T07:56:30.617Z,13.70
2023-02-26T07:58:59.672Z,13.80
2023-02-26T08:01:28.961Z,14.00
2023-02-26T08:03:57.830Z,18.40
2023-02-26T08:06:28.034Z,19.70
2023-02-26T08:09:01.926Z,17.90
2023-02-26T08:11:33.103Z,15.50
2023-02-26T08:14:02.065Z,15.10
2023-02-26T08:16:31.179Z,15.90
2023-02-26T08:19:00.070Z,15.30
2023-02-26T08:21:29.352Z,16.10
2023-02-26T08:23:58.449Z,12.30
2023-02-26T08:26:27.496Z,13.20
2023-02-26T08:28:56.665Z,11.50
2023-02-26T08:31:27.424Z,11.10
2023-02-26T08:33:56.151Z,14.50
2023-02-26T08:36:25.587Z,9.60
2023-02-26T08:38:55.270Z,9.70
2023-02-26T08:41:24.759Z,11.90
2023-02-26T08:43:55.193Z,11.10
2023-02-26T08:46:24.391Z,9.10
2023-02-26T08:48:54.000Z,10.90
2023-02-26T08:51:23.382Z,9.80
2023-02-26T08:53:52.606Z,9.20
2023-02-26T08:56:21.380Z,11.60
2023-02-26T08:58:50.490Z,13.30
2023-02-26T09:01:19.174Z,14.10
2023-02-26T09:03:48.271Z,13.10
2023-02-26T09:06:16.954Z,12.50
2023-02-26T09:08:48.000Z,13.50
2023-02-26T09:11:18.015Z,13.30
2023-02-26T09:13:46.511Z,18.80
2023-02-26T09:16:14.944Z,16.00
2023-02-26T09:18:47.138Z,19.00
2023-02-26T09:21:15.677Z,15.00
2023-02-26T09:23:45.545Z,17.40
2023-02-26T09:26:14.522Z,20.00
2023-02-26T09:28:43.173Z,11.50
2023-02-26T09:31:12.502Z,14.20
2023-02-26T09:33:41.809Z,18.00
2023-02-26T09:36:10.098Z,18.10
2023-02-26T09:38:39.000Z,15.50
2023-02-26T09:41:29.080Z,17.70
2023-02-26T09:43:57.963Z,12.90
2023-02-26T09:46:32.907Z,14.20
2023-02-26T09:49:29.172Z,18.50
2023-02-26T09:52:31.809Z,14.10
2023-02-26T09:55:10.826Z,12.90
2023-02-26T09:57:45.348Z,12.70
2023-02-26T10:00:18.144Z,12.50
2023-02-26T10:03:10.171Z,15.70
2023-02-26T10:08:33.650Z,16.20
2023-02-26T10:11:15.161Z,14.30
2023-02-26T10:13:57.197Z,21.50
2023-02-26T10:19:18.814Z,20.10
2023-02-26T10:21:53.093Z,25.20
2023-02-26T10:24:39.543Z,23.10
2023-02-26T10:27:41.162Z,19.30
2023-02-26T10:30:29.039Z,21.10
2023-02-26T10:33:28.054Z,21.90
2023-02-26T10:36:01.275Z,23.90
2023-02-26T10:38:31.398Z,17.80
2023-02-26T10:41:08.525Z,22.20
2023-02-26T10:43:42.978Z,19.70
2023-02-26T10:46:45.852Z,19.80
2023-02-26T10:49:33.610Z,18.00
2023-02-26T10:52:31.889Z,16.10
2023-02-26T10:55:14.417Z,15.30
2023-02-26T10:57:48.101Z,17.20
2023-02-26T11:00:19.286Z,16.10
2023-02-26T11:02:52.215Z,28.00
2023-02-26T11:05:30.762Z,19.60
2023-02-26T11:08:06.125Z,16.10
2023-02-26T11:10:48.907Z,15.80
2023-02-26T11:13:18.312Z,16.80
2023-02-26T11:15:49.729Z,15.10
2023-02-26T11:18:42.635Z,21.10
2023-02-26T11:21:17.779Z,17.90
2023-02-26T11:23:47.671Z,18.30
2023-02-26T11:26:17.999Z,14.60
2023-02-26T11:28:48.570Z,14.70
2023-02-26T11:31:21.339Z,25.50
2023-02-26T11:33:52.136Z,41.20
2023-02-26T11:36:22.263Z,35.20
2023-02-26T11:39:03.128Z,25.10
2023-02-26T11:44:05.530Z,28.70
2023-02-26T11:46:51.195Z,27.30
2023-02-26T11:49:23.404Z,26.60
2023-02-26T11:52:06.179Z,21.20
2023-02-26T11:54:36.611Z,14.60
2023-02-26T11:57:08.489Z,13.80
2023-02-26T11:59:38.602Z,18.50
2023-02-26T12:02:13.218Z,16.50
2023-02-26T12:04:45.241Z,13.60
2023-02-26T12:09:44.072Z,12.70
2023-02-26T12:12:21.949Z,12.20
2023-02-26T12:15:03.705Z,9.60
2023-02-26T12:20:28.986Z,10.70
2023-02-26T12:22:59.121Z,8.60
2023-02-26T12:25:32.830Z,10.60
2023-02-26T12:28:26.292Z,9.60
2023-02-26T12:30:55.400Z,8.00
2023-02-26T12:33:38.918Z,9.20
2023-02-26T12:36:23.569Z,11.10
2023-02-26T12:39:26.051Z,8.60
2023-02-26T12:42:19.924Z,8.80
2023-02-26T12:45:20.968Z,12.20
2023-02-26T12:48:10.544Z,11.10
2023-02-26T12:50:56.026Z,15.00
2023-02-26T12:53:43.040Z,13.70
2023-02-26T12:56:49.646Z,17.60
2023-02-26T12:59:42.082Z,13.50
2023-02-26T13:02:34.094Z,13.60
2023-02-26T13:05:15.382Z,19.90
2023-02-26T13:07:50.107Z,19.50
2023-02-26T13:10:28.523Z,14.90
2023-02-26T13:13:22.489Z,16.60
2023-02-26T13:16:16.406Z,14.10
2023-02-26T13:18:54.677Z,15.50
2023-02-26T13:21:26.998Z,10.50
2023-02-26T13:24:01.159Z,11.60
2023-02-26T13:26:31.689Z,11.40
2023-02-26T13:29:18.884Z,10.40
2023-02-26T13:31:56.023Z,9.70
2023-02-26T13:34:48.653Z,18.00
2023-02-26T13:37:23.342Z,17.30
2023-02-26T13:39:57.382Z,27.20
2023-02-26T13:42:59.040Z,14.30
2023-02-26T13:45:51.135Z,14.20
2023-02-26T13:48:46.169Z,12.50
2023-02-26T13:51:26.367Z,13.80
2023-02-26T13:54:00.107Z,17.40
2023-02-26T13:56:29.020Z,15.70
2023-02-26T13:59:13.536Z,15.80
2023-02-26T14:01:46.822Z,17.70
2023-02-26T14:04:25.441Z,31.40
2023-02-26T14:06:58.434Z,32.20
2023-02-26T14:09:36.068Z,30.20
2023-02-26T14:12:16.123Z,20.40
2023-02-26T14:15:12.046Z,29.20
2023-02-26T14:17:51.581Z,25.20
2023-02-26T14:20:28.470Z,22.50
2023-02-26T14:23:12.521Z,17.30
2023-02-26T14:25:47.942Z,16.10
2023-02-26T14:28:33.321Z,14.70
2023-02-26T14:31:17.011Z,10.20
2023-02-26T14:34:04.814Z,8.70
2023-02-26T14:36:44.741Z,8.90
2023-02-26T14:39:36.981Z,8.40
2023-02-26T14:42:18.778Z,7.50
2023-02-26T14:44:49.634Z,7.50
2023-02-26T14:47:18.707Z,5.90
2023-02-26T14:49:49.807Z,16.20
2023-02-26T14:52:32.771Z,17.80
2023-02-26T14:55:24.099Z,14.00
2023-02-26T14:58:09.560Z,15.50
2023-02-26T15:00:51.158Z,16.60
2023-02-26T15:03:40.325Z,24.60
2023-02-26T15:06:31.120Z,37.80
2023-02-26T15:09:10.350Z,16.20
2023-02-26T15:11:58.771Z,10.60
2023-02-26T15:14:36.109Z,14.90
2023-02-26T15:17:15.653Z,17.60
2023-02-26T15:19:59.994Z,14.70
2023-02-26T15:22:37.481Z,10.30
2023-02-26T15:25:12.392Z,9.50
2023-02-26T15:27:41.295Z,14.80
2023-02-26T15:30:14.952Z,17.50
2023-02-26T15:32:44.317Z,16.60
2023-02-26T15:35:17.569Z,11.70
2023-02-26T15:37:51.719Z,8.00
2023-02-26T15:40:22.848Z,10.50
2023-02-26T15:42:56.258Z,22.40
2023-02-26T15:45:37.729Z,19.20
2023-02-26T15:48:16.922Z,14.60
2023-02-26T15:50:47.595Z,13.70
2023-02-26T15:53:19.732Z,10.90
2023-02-26T15:55:52.131Z,16.50
2023-02-26T15:58:29.834Z,16.90
2023-02-26T16:01:02.989Z,14.40
2023-02-26T16:03:35.771Z,15.80
2023-02-26T16:06:07.078Z,13.80
2023-02-26T16:08:39.625Z,16.10
2023-02-26T16:11:08.821Z,17.20
2023-02-26T16:13:39.045Z,19.60
2023-02-26T16:16:13.097Z,38.10
2023-02-26T16:18:42.794Z,32.70
2023-02-26T16:21:31.619Z,26.80
2023-02-26T16:24:00.821Z,15.60
2023-02-26T16:26:34.955Z,28.30
2023-02-26T16:29:07.708Z,48.10
2023-02-26T16:31:38.400Z,39.20
2023-02-26T16:34:32.012Z,41.40
2023-02-26T16:37:11.661Z,30.10
2023-02-26T16:39:44.427Z,18.40
2023-02-26T16:42:24.456Z,21.20
2023-02-26T16:45:02.210Z,16.40
2023-02-26T16:47:33.831Z,12.10
2023-02-26T16:50:03.232Z,17.00
2023-02-26T16:52:32.655Z,21.20
2023-02-26T16:55:04.523Z,32.30
2023-02-26T16:57:40.102Z,24.40
2023-02-26T17:00:30.005Z,23.40
2023-02-26T17:03:12.439Z,23.40
2023-02-26T17:05:51.461Z,20.30
2023-02-26T17:08:21.889Z,32.50
2023-02-26T17:11:00.504Z,33.10
2023-02-26T17:13:34.230Z,30.00
2023-02-26T17:16:04.528Z,16.50
2023-02-26T17:18:34.540Z,19.00
2023-02-26T17:21:07.228Z,11.70
2023-02-26T17:23:37.972Z,14.30
2023-02-26T17:26:07.257Z,12.10
2023-02-26T17:28:40.091Z,15.60
2023-02-26T17:31:09.953Z,13.80
2023-02-26T17:33:41.309Z,11.00
2023-02-26T17:36:14.926Z,10.40
2023-02-26T17:38:47.287Z,29.40
2023-02-26T17:41:19.448Z,21.00
2023-02-26T17:43:49.047Z,14.90
2023-02-26T17:46:17.844Z,12.10
2023-02-26T17:48:47.954Z,13.30
2023-02-26T17:51:17.677Z,11.90
2023-02-26T17:53:47.098Z,16.00
2023-02-26T17:56:21.713Z,22.20
2023-02-26T17:58:52.023Z,20.40
2023-02-26T18:01:21.577Z,14.50
2023-02-26T18:03:54.901Z,20.60
2023-02-26T18:06:24.953Z,15.20
2023-02-26T18:08:54.650Z,16.10
2023-02-26T18:11:26.316Z,14.60
2023-02-26T18:13:55.912Z,16.00
2023-02-26T18:16:33.642Z,12.90
2023-02-26T18:19:03.029Z,12.30
2023-02-26T18:21:33.464Z,13.60
2023-02-26T18:24:02.639Z,12.20
2023-02-26T18:26:32.607Z,14.60
2023-02-26T18:29:02.384Z,16.80
2023-02-26T18:31:35.642Z,11.70
2023-02-26T18:34:06.632Z,13.00
2023-02-26T18:36:38.303Z,12.10
2023-02-26T18:39:20.657Z,12.70
2023-02-26T18:41:51.081Z,10.90
2023-02-26T18:44:19.983Z,11.00
2023-02-26T18:46:49.319Z,12.40
2023-02-26T18:49:19.801Z,12.40
2023-02-26T18:51:48.914Z,13.40
2023-02-26T18:54:18.508Z,14.30
2023-02-26T18:56:47.605Z,15.00
2023-02-26T18:59:16.998Z,14.40
2023-02-26T19:01:48.392Z,19.20
2023-02-26T19:04:18.183Z,12.80
2023-02-26T19:06:50.977Z,11.10
2023-02-26T19:09:20.036Z,11.70
2023-02-26T19:11:49.034Z,14.20
2023-02-26T19:14:19.050Z,12.60
2023-02-26T19:16:48.453Z,14.80
2023-02-26T19:19:19.490Z,19.10
2023-02-26T19:21:48.992Z,17.70
2023-02-26T19:24:18.398Z,11.40
2023-02-26T19:26:47.318Z,10.30
2023-02-26T19:29:17.527Z,12.50
2023-02-26T19:31:46.937Z,12.70
2023-02-26T19:34:15.807Z,17.80
2023-02-26T19:36:48.560Z,20.00
2023-02-26T19:39:18.890Z,11.20
2023-02-26T19:41:49.569Z,10.40
2023-02-26T19:44:18.738Z,9.90
2023-02-26T19:46:48.546Z,8.40
2023-02-26T19:49:17.964Z,10.00
2023-02-26T19:51:46.965Z,8.10
2023-02-26T19:54:15.937Z,10.60
2023-02-26T19:56:44.826Z,8.40
2023-02-26T19:59:13.414Z,9.70
2023-02-26T20:01:44.062Z,9.90
2023-02-26T20:04:14.073Z,9.40
2023-02-26T20:06:44.078Z,9.60
2023-02-26T20:09:18.697Z,11.30
2023-02-26T20:11:47.695Z,12.90
2023-02-26T20:14:17.024Z,19.40
2023-02-26T20:16:47.226Z,16.20
2023-02-26T20:19:16.120Z,18.80
2023-02-26T20:21:47.045Z,15.70
2023-02-26T20:24:16.367Z,15.50
2023-02-26T20:26:45.866Z,13.60
2023-02-26T20:29:18.752Z,15.50
2023-02-26T20:31:50.261Z,10.90
2023-02-26T20:34:19.597Z,11.60
2023-02-26T20:36:51.025Z,10.20
2023-02-26T20:39:21.454Z,9.30
2023-02-26T20:41:51.186Z,9.40
2023-02-26T20:44:20.264Z,11.20
2023-02-26T20:46:49.692Z,19.50
2023-02-26T20:49:18.557Z,20.00
2023-02-26T20:51:50.732Z,11.10
2023-02-26T20:54:20.648Z,21.30
2023-02-26T20:56:50.675Z,15.90
2023-02-26T20:59:20.255Z,16.70
2023-02-26T21:01:54.169Z,13.40
2023-02-26T21:04:23.363Z,18.90
2023-02-26T21:06:52.351Z,19.20
2023-02-26T21:09:21.500Z,19.10
2023-02-26T21:11:52.631Z,25.80
2023-02-26T21:14:22.610Z,24.50
2023-02-26T21:16:54.262Z,25.30
2023-02-26T21:19:24.195Z,19.30
2023-02-26T21:21:53.277Z,27.60
2023-02-26T21:24:23.186Z,31.10
2023-02-26T21:26:53.202Z,22.10
2023-02-26T21:29:23.172Z,33.80
2023-02-26T21:31:54.007Z,20.40
2023-02-26T21:34:33.587Z,22.10
2023-02-26T21:37:03.932Z,19.50
2023-02-26T21:39:33.134Z,27.00
2023-02-26T21:42:04.078Z,16.10
2023-02-26T21:44:35.732Z,16.40
2023-02-26T21:47:04.809Z,26.20
2023-02-26T21:49:33.610Z,14.10
2023-02-26T21:52:11.405Z,11.80
2023-02-26T21:54:44.058Z,15.30
2023-02-26T21:57:13.065Z,10.60
2023-02-26T21:59:42.259Z,9.50
2023-02-26T22:02:12.017Z,9.50
2023-02-26T22:04:42.394Z,8.30
2023-02-26T22:07:11.799Z,9.80
2023-02-26T22:09:40.405Z,8.90
2023-02-26T22:12:08.889Z,8.70
2023-02-26T22:14:37.645Z,9.30
2023-02-26T22:17:06.561Z,9.50
2023-02-26T22:19:37.177Z,9.40
2023-02-26T22:22:05.782Z,11.80
2023-02-26T22:24:35.358Z,10.20
2023-02-26T22:27:05.477Z,10.90
2023-02-26T22:29:34.382Z,14.30
2023-02-26T22:32:03.155Z,9.80
2023-02-26T22:34:34.196Z,11.00
2023-02-26T22:37:02.786Z,9.90
2023-02-26T22:39:31.474Z,8.10
2023-02-26T22:42:20.039Z,10.60
2023-02-26T22:44:48.810Z,9.60
2023-02-26T22:47:17.818Z,10.90
2023-02-26T22:49:46.797Z,9.90
2023-02-26T22:52:17.733Z,10.00
2023-02-26T22:54:48.081Z,12.50
2023-02-26T22:57:16.947Z,12.40
2023-02-26T22:59:45.736Z,12.10
2023-02-26T23:02:14.733Z,9.60
2023-02-26T23:04:44.494Z,11.50
2023-02-26T23:07:13.227Z,11.90
2023-02-26T23:09:42.550Z,11.80
2023-02-26T23:12:11.453Z,11.30
2023-02-26T23:14:40.629Z,11.60
2023-02-26T23:17:11.498Z,9.80
2023-02-26T23:19:41.568Z,14.50
2023-02-26T23:22:10.561Z,12.70
2023-02-26T23:24:40.820Z,17.50
2023-02-26T23:27:09.572Z,19.50
2023-02-26T23:29:45.859Z,11.50
2023-02-26T23:32:15.547Z,13.00
2023-02-26T23:34:45.050Z,15.90
2023-02-26T23:37:14.244Z,10.70
2023-02-26T23:39:42.935Z,10.80
2023-02-26T23:42:12.065Z,13.60
2023-02-26T23:44:41.117Z,12.70
2023-02-26T23:47:09.803Z,11.50
2023-02-26T23:49:40.225Z,12.90
2023-02-26T23:52:09.637Z,12.20
2023-02-26T23:54:40.070Z,10.90
2023-02-26T23:57:09.399Z,16.90
2023-02-26T23:59:39.910Z,12.40
